OYBBC ENBR-ENTO
Flight info
| Callsign | OYBBC |
|---|---|
| Flight time | 1h 13m |
| Altitude | 9000 |
| Route | TINIG DCT NULNO DCT ULMUG |
| Aircraft | PA24/L-SDGRY/S |
Departure
| Time | 2026-05-04 17:40 |
|---|---|
| Airport | Bergen Airport, Flesland (ENBR) |
Arrival
| Time | 2026-05-04 18:53 |
|---|---|
| Airport | Sandefjord Airport, Torp (ENTO) |
| Time | Latitude | Longitude | Altitude | Speed | Heading |
|---|---|---|---|---|---|
| 2026-05-04 17:16 | 60.29931 | 5.22636 | 140 ft | 0 kts | 290° |
| 2026-05-04 17:33 | 60.29931 | 5.22627 | 140 ft | 4 kts | 253° |
| 2026-05-04 17:33 | 60.29888 | 5.22651 | 139 ft | 8 kts | 178° |
| 2026-05-04 17:34 | 60.29789 | 5.22530 | 142 ft | 0 kts | 232° |
| 2026-05-04 17:34 | 60.29786 | 5.22522 | 141 ft | 1 kts | 232° |
| 2026-05-04 17:35 | 60.29735 | 5.22130 | 142 ft | 15 kts | 263° |
| 2026-05-04 17:35 | 60.29566 | 5.22063 | 146 ft | 14 kts | 171° |
| 2026-05-04 17:35 | 60.29479 | 5.22094 | 150 ft | 12 kts | 170° |
| 2026-05-04 17:36 | 60.29397 | 5.22118 | 152 ft | 12 kts | 172° |
| 2026-05-04 17:36 | 60.29315 | 5.22147 | 156 ft | 12 kts | 170° |
| 2026-05-04 17:36 | 60.29229 | 5.22175 | 157 ft | 13 kts | 170° |
| 2026-05-04 17:36 | 60.29131 | 5.22210 | 157 ft | 15 kts | 170° |
| 2026-05-04 17:37 | 60.29021 | 5.22246 | 157 ft | 17 kts | 170° |
| 2026-05-04 17:37 | 60.28932 | 5.22246 | 155 ft | 4 kts | 225° |
| 2026-05-04 17:37 | 60.28921 | 5.22201 | 154 ft | 5 kts | 258° |
| 2026-05-04 17:37 | 60.28915 | 5.22135 | 153 ft | 6 kts | 261° |
| 2026-05-04 17:38 | 60.28909 | 5.22028 | 155 ft | 8 kts | 276° |
| 2026-05-04 17:38 | 60.28933 | 5.21957 | 156 ft | 1 kts | 349° |
| 2026-05-04 17:38 | 60.28937 | 5.21955 | 156 ft | 0 kts | 349° |
| 2026-05-04 17:38 | 60.29019 | 5.21924 | 156 ft | 43 kts | 351° |
| 2026-05-04 17:39 | 60.29988 | 5.22355 | 294 ft | 104 kts | 83° |
| 2026-05-04 17:39 | 60.29798 | 5.23858 | 447 ft | 121 kts | 109° |
| 2026-05-04 17:39 | 60.29472 | 5.25511 | 559 ft | 136 kts | 114° |
| 2026-05-04 17:40 | 60.29034 | 5.27184 | 818 ft | 130 kts | 123° |
| 2026-05-04 17:40 | 60.28497 | 5.28722 | 920 ft | 141 kts | 121° |
| 2026-05-04 17:40 | 60.27996 | 5.30426 | 1071 ft | 142 kts | 121° |
| 2026-05-04 17:40 | 60.27663 | 5.31572 | 1136 ft | 144 kts | 120° |
| 2026-05-04 17:41 | 60.27156 | 5.33328 | 1223 ft | 148 kts | 120° |
| 2026-05-04 17:41 | 60.26474 | 5.35728 | 1384 ft | 148 kts | 121° |
| 2026-05-04 17:41 | 60.25879 | 5.37417 | 1516 ft | 149 kts | 128° |
| 2026-05-04 17:41 | 60.25249 | 5.39073 | 1610 ft | 150 kts | 128° |
| 2026-05-04 17:42 | 60.24827 | 5.40180 | 1672 ft | 150 kts | 128° |
| 2026-05-04 17:42 | 60.24199 | 5.41833 | 2015 ft | 150 kts | 128° |
| 2026-05-04 17:42 | 60.23553 | 5.43555 | 2084 ft | 157 kts | 129° |
| 2026-05-04 17:42 | 60.22923 | 5.45300 | 2236 ft | 155 kts | 128° |
| 2026-05-04 17:43 | 60.22255 | 5.47098 | 2267 ft | 163 kts | 128° |
| 2026-05-04 17:43 | 60.21562 | 5.48881 | 2449 ft | 161 kts | 131° |
| 2026-05-04 17:43 | 60.20850 | 5.50624 | 2456 ft | 162 kts | 132° |
| 2026-05-04 17:43 | 60.20041 | 5.52220 | 2494 ft | 164 kts | 136° |
| 2026-05-04 17:44 | 60.19225 | 5.53803 | 2586 ft | 162 kts | 138° |
| 2026-05-04 17:44 | 60.18406 | 5.55390 | 2630 ft | 164 kts | 137° |
| 2026-05-04 17:44 | 60.17732 | 5.57212 | 2651 ft | 164 kts | 123° |
| 2026-05-04 17:44 | 60.16978 | 5.58906 | 2746 ft | 165 kts | 136° |
| 2026-05-04 17:45 | 60.16159 | 5.60504 | 2820 ft | 163 kts | 138° |
| 2026-05-04 17:45 | 60.15347 | 5.62101 | 2890 ft | 163 kts | 135° |
| 2026-05-04 17:45 | 60.14559 | 5.63740 | 2933 ft | 163 kts | 135° |
| 2026-05-04 17:45 | 60.13750 | 5.65355 | 3001 ft | 166 kts | 136° |
| 2026-05-04 17:46 | 60.12929 | 5.67015 | 3007 ft | 168 kts | 135° |
| 2026-05-04 17:46 | 60.12113 | 5.68670 | 3074 ft | 167 kts | 136° |
| 2026-05-04 17:46 | 60.11291 | 5.70322 | 3112 ft | 169 kts | 136° |
| 2026-05-04 17:46 | 60.10435 | 5.71939 | 3134 ft | 170 kts | 144° |
| 2026-05-04 17:47 | 60.09467 | 5.73296 | 3189 ft | 168 kts | 147° |
| 2026-05-04 17:47 | 60.08517 | 5.74638 | 3230 ft | 169 kts | 147° |
| 2026-05-04 17:47 | 60.07543 | 5.76007 | 3217 ft | 170 kts | 146° |
| 2026-05-04 17:47 | 60.06616 | 5.77296 | 3445 ft | 160 kts | 147° |
| 2026-05-04 17:48 | 60.05695 | 5.78595 | 3453 ft | 166 kts | 147° |
| 2026-05-04 17:48 | 60.04747 | 5.79922 | 3560 ft | 161 kts | 147° |
| 2026-05-04 17:48 | 60.03818 | 5.81210 | 3671 ft | 167 kts | 146° |
| 2026-05-04 17:48 | 60.02853 | 5.82529 | 3752 ft | 167 kts | 147° |
| 2026-05-04 17:49 | 60.01888 | 5.83814 | 3816 ft | 167 kts | 146° |
| 2026-05-04 17:49 | 60.00922 | 5.85135 | 3874 ft | 168 kts | 146° |
| 2026-05-04 17:49 | 59.99955 | 5.86454 | 3959 ft | 168 kts | 147° |
| 2026-05-04 17:49 | 59.98985 | 5.87763 | 4026 ft | 168 kts | 147° |
| 2026-05-04 17:50 | 59.98015 | 5.89078 | 4100 ft | 168 kts | 147° |
| 2026-05-04 17:50 | 59.97048 | 5.90393 | 4174 ft | 168 kts | 147° |
| 2026-05-04 17:50 | 59.96082 | 5.91716 | 4241 ft | 169 kts | 147° |
| 2026-05-04 17:50 | 59.95110 | 5.93034 | 4311 ft | 169 kts | 147° |
| 2026-05-04 17:51 | 59.94142 | 5.94359 | 4386 ft | 169 kts | 147° |
| 2026-05-04 17:51 | 59.93223 | 5.95813 | 4433 ft | 171 kts | 136° |
| 2026-05-04 17:51 | 59.92425 | 5.97523 | 4523 ft | 169 kts | 130° |
| 2026-05-04 17:51 | 59.91732 | 5.99410 | 4574 ft | 169 kts | 123° |
| 2026-05-04 17:52 | 59.91065 | 6.01345 | 4607 ft | 170 kts | 123° |
| 2026-05-04 17:52 | 59.90394 | 6.03280 | 4700 ft | 170 kts | 124° |
| 2026-05-04 17:52 | 59.89708 | 6.05196 | 4768 ft | 169 kts | 124° |
| 2026-05-04 17:52 | 59.89048 | 6.07148 | 4818 ft | 171 kts | 121° |
| 2026-05-04 17:53 | 59.88468 | 6.09209 | 4821 ft | 170 kts | 114° |
| 2026-05-04 17:53 | 59.87952 | 6.11324 | 4880 ft | 170 kts | 114° |
| 2026-05-04 17:53 | 59.87415 | 6.13421 | 4955 ft | 171 kts | 114° |
| 2026-05-04 17:53 | 59.86889 | 6.15549 | 5030 ft | 171 kts | 115° |
| 2026-05-04 17:54 | 59.86369 | 6.17692 | 5078 ft | 172 kts | 114° |
| 2026-05-04 17:54 | 59.85838 | 6.19820 | 5129 ft | 171 kts | 114° |
| 2026-05-04 17:54 | 59.85301 | 6.21938 | 5170 ft | 171 kts | 113° |
| 2026-05-04 17:54 | 59.84791 | 6.24073 | 5216 ft | 171 kts | 113° |
| 2026-05-04 17:55 | 59.84271 | 6.26204 | 5264 ft | 170 kts | 114° |
| 2026-05-04 17:55 | 59.83751 | 6.28329 | 5306 ft | 172 kts | 114° |
| 2026-05-04 17:55 | 59.83236 | 6.30482 | 5375 ft | 173 kts | 113° |
| 2026-05-04 17:55 | 59.82737 | 6.32621 | 5466 ft | 173 kts | 114° |
| 2026-05-04 17:56 | 59.82224 | 6.34800 | 5516 ft | 174 kts | 114° |
| 2026-05-04 17:56 | 59.81699 | 6.36963 | 5538 ft | 174 kts | 114° |
| 2026-05-04 17:56 | 59.81164 | 6.39116 | 5584 ft | 173 kts | 114° |
| 2026-05-04 17:56 | 59.80645 | 6.41273 | 5588 ft | 174 kts | 113° |
| 2026-05-04 17:57 | 59.80118 | 6.43438 | 5686 ft | 174 kts | 114° |
| 2026-05-04 17:57 | 59.79579 | 6.45584 | 5682 ft | 174 kts | 112° |
| 2026-05-04 17:57 | 59.79075 | 6.47781 | 5697 ft | 175 kts | 113° |
| 2026-05-04 17:57 | 59.78541 | 6.49942 | 5697 ft | 175 kts | 114° |
| 2026-05-04 17:58 | 59.78014 | 6.52125 | 5763 ft | 175 kts | 114° |
| 2026-05-04 17:58 | 59.77483 | 6.54307 | 5799 ft | 176 kts | 113° |
| 2026-05-04 17:58 | 59.76960 | 6.56493 | 5765 ft | 175 kts | 114° |
| 2026-05-04 17:58 | 59.76492 | 6.58697 | 5829 ft | 175 kts | 112° |
| 2026-05-04 17:59 | 59.76027 | 6.60933 | 5887 ft | 175 kts | 114° |
| 2026-05-04 17:59 | 59.75540 | 6.63143 | 5905 ft | 174 kts | 115° |
| 2026-05-04 17:59 | 59.74561 | 6.67559 | 5925 ft | 177 kts | 114° |
| 2026-05-04 18:00 | 59.74076 | 6.69814 | 6011 ft | 177 kts | 113° |
| 2026-05-04 18:00 | 59.73598 | 6.72075 | 5964 ft | 177 kts | 114° |
| 2026-05-04 18:00 | 59.73136 | 6.74344 | 5981 ft | 177 kts | 113° |
| 2026-05-04 18:00 | 59.72658 | 6.76592 | 6028 ft | 177 kts | 114° |
| 2026-05-04 18:01 | 59.72169 | 6.78837 | 6113 ft | 177 kts | 114° |
| 2026-05-04 18:01 | 59.71678 | 6.81066 | 6168 ft | 176 kts | 114° |
| 2026-05-04 18:01 | 59.71170 | 6.83279 | 6136 ft | 177 kts | 116° |
| 2026-05-04 18:02 | 59.70205 | 6.87873 | 6121 ft | 184 kts | 114° |
| 2026-05-04 18:02 | 59.69736 | 6.90242 | 6162 ft | 185 kts | 114° |
| 2026-05-04 18:02 | 59.69267 | 6.92574 | 6257 ft | 185 kts | 114° |
| 2026-05-04 18:02 | 59.68799 | 6.94938 | 6195 ft | 184 kts | 115° |
| 2026-05-04 18:03 | 59.68330 | 6.97299 | 6163 ft | 184 kts | 114° |
| 2026-05-04 18:03 | 59.67857 | 6.99663 | 6207 ft | 185 kts | 114° |
| 2026-05-04 18:03 | 59.67383 | 7.02035 | 6245 ft | 186 kts | 114° |
| 2026-05-04 18:03 | 59.66894 | 7.04410 | 6273 ft | 186 kts | 115° |
| 2026-05-04 18:04 | 59.66414 | 7.06790 | 6242 ft | 187 kts | 114° |
| 2026-05-04 18:04 | 59.65944 | 7.09189 | 6262 ft | 186 kts | 114° |
| 2026-05-04 18:04 | 59.65006 | 7.13931 | 6282 ft | 186 kts | 113° |
| 2026-05-04 18:05 | 59.64530 | 7.16321 | 6284 ft | 186 kts | 114° |
| 2026-05-04 18:05 | 59.64066 | 7.18706 | 6298 ft | 186 kts | 113° |
| 2026-05-04 18:05 | 59.63586 | 7.21142 | 6333 ft | 193 kts | 115° |
| 2026-05-04 18:05 | 59.63092 | 7.23621 | 6333 ft | 194 kts | 116° |
| 2026-05-04 18:06 | 59.62032 | 7.28514 | 6367 ft | 194 kts | 117° |
| 2026-05-04 18:06 | 59.61490 | 7.30948 | 6367 ft | 193 kts | 117° |
| 2026-05-04 18:06 | 59.60966 | 7.33392 | 6326 ft | 192 kts | 116° |
| 2026-05-04 18:07 | 59.60447 | 7.35823 | 6285 ft | 193 kts | 116° |
| 2026-05-04 18:07 | 59.59914 | 7.38214 | 6275 ft | 192 kts | 118° |
| 2026-05-04 18:07 | 59.59371 | 7.40625 | 6268 ft | 193 kts | 118° |
| 2026-05-04 18:07 | 59.58829 | 7.43060 | 6277 ft | 194 kts | 117° |
| 2026-05-04 18:08 | 59.58294 | 7.45497 | 6291 ft | 194 kts | 117° |
| 2026-05-04 18:08 | 59.57750 | 7.47938 | 6295 ft | 194 kts | 117° |
| 2026-05-04 18:08 | 59.57206 | 7.50370 | 6355 ft | 193 kts | 117° |
| 2026-05-04 18:08 | 59.56670 | 7.52810 | 6366 ft | 194 kts | 116° |
| 2026-05-04 18:09 | 59.55601 | 7.57710 | 6353 ft | 194 kts | 118° |
| 2026-05-04 18:09 | 59.54523 | 7.62542 | 6349 ft | 193 kts | 118° |
| 2026-05-04 18:10 | 59.53996 | 7.64977 | 6340 ft | 193 kts | 117° |
| 2026-05-04 18:10 | 59.53464 | 7.67414 | 6367 ft | 193 kts | 118° |
| 2026-05-04 18:10 | 59.52941 | 7.69853 | 6360 ft | 193 kts | 117° |
| 2026-05-04 18:10 | 59.52428 | 7.72299 | 6347 ft | 193 kts | 117° |
| 2026-05-04 18:11 | 59.51889 | 7.74746 | 6285 ft | 197 kts | 117° |
| 2026-05-04 18:11 | 59.51326 | 7.77281 | 6080 ft | 204 kts | 116° |
| 2026-05-04 18:11 | 59.50743 | 7.79818 | 6003 ft | 203 kts | 118° |
| 2026-05-04 18:11 | 59.50141 | 7.82312 | 5559 ft | 202 kts | 118° |
| 2026-05-04 18:12 | 59.49537 | 7.84816 | 5391 ft | 206 kts | 117° |
| 2026-05-04 18:12 | 59.48916 | 7.87337 | 5263 ft | 205 kts | 117° |
| 2026-05-04 18:12 | 59.48340 | 7.89912 | 5069 ft | 206 kts | 115° |
| 2026-05-04 18:12 | 59.47741 | 7.92450 | 4941 ft | 203 kts | 118° |
| 2026-05-04 18:13 | 59.47132 | 7.94946 | 4753 ft | 201 kts | 117° |
| 2026-05-04 18:13 | 59.46547 | 7.97436 | 4597 ft | 199 kts | 116° |
| 2026-05-04 18:13 | 59.45387 | 8.02421 | 4095 ft | 201 kts | 120° |
| 2026-05-04 18:14 | 59.44768 | 8.04846 | 3978 ft | 198 kts | 118° |
| 2026-05-04 18:14 | 59.44244 | 8.07333 | 3774 ft | 196 kts | 112° |
| 2026-05-04 18:14 | 59.43694 | 8.09773 | 3663 ft | 195 kts | 117° |
| 2026-05-04 18:15 | 59.42764 | 8.14747 | 3378 ft | 195 kts | 110° |
| 2026-05-04 18:15 | 59.42036 | 8.19848 | 3084 ft | 194 kts | 107° |
| 2026-05-04 18:15 | 59.41647 | 8.22290 | 2961 ft | 188 kts | 111° |
| 2026-05-04 18:16 | 59.41214 | 8.24725 | 2826 ft | 185 kts | 111° |
| 2026-05-04 18:16 | 59.40823 | 8.27069 | 2813 ft | 181 kts | 109° |
| 2026-05-04 18:16 | 59.40459 | 8.29444 | 2731 ft | 180 kts | 109° |
| 2026-05-04 18:17 | 59.39587 | 8.34134 | 2449 ft | 186 kts | 110° |
| 2026-05-04 18:17 | 59.39280 | 8.36564 | 2353 ft | 183 kts | 99° |
| 2026-05-04 18:17 | 59.39033 | 8.41465 | 2193 ft | 182 kts | 99° |
| 2026-05-04 18:18 | 59.38719 | 8.43910 | 2091 ft | 188 kts | 114° |
| 2026-05-04 18:18 | 59.38199 | 8.46284 | 2019 ft | 188 kts | 117° |
| 2026-05-04 18:18 | 59.37700 | 8.48594 | 1965 ft | 180 kts | 116° |
| 2026-05-04 18:18 | 59.37223 | 8.50901 | 1886 ft | 185 kts | 112° |
| 2026-05-04 18:19 | 59.36191 | 8.55194 | 2065 ft | 169 kts | 123° |
| 2026-05-04 18:19 | 59.35576 | 8.57218 | 2062 ft | 173 kts | 127° |
| 2026-05-04 18:19 | 59.34959 | 8.59264 | 2084 ft | 176 kts | 128° |
| 2026-05-04 18:20 | 59.34220 | 8.61128 | 2149 ft | 175 kts | 137° |
| 2026-05-04 18:20 | 59.33525 | 8.63083 | 2154 ft | 174 kts | 128° |
| 2026-05-04 18:20 | 59.32890 | 8.65058 | 2241 ft | 172 kts | 125° |
| 2026-05-04 18:20 | 59.32230 | 8.67048 | 2274 ft | 175 kts | 123° |
| 2026-05-04 18:21 | 59.31818 | 8.69284 | 2223 ft | 176 kts | 102° |
| 2026-05-04 18:21 | 59.31718 | 8.71682 | 2328 ft | 175 kts | 93° |
| 2026-05-04 18:21 | 59.31727 | 8.74057 | 2289 ft | 175 kts | 89° |
| 2026-05-04 18:21 | 59.31640 | 8.76486 | 2233 ft | 180 kts | 99° |
| 2026-05-04 18:22 | 59.31454 | 8.78887 | 2329 ft | 177 kts | 101° |
| 2026-05-04 18:22 | 59.31250 | 8.81258 | 2361 ft | 176 kts | 102° |
| 2026-05-04 18:22 | 59.31059 | 8.83635 | 2359 ft | 177 kts | 98° |
| 2026-05-04 18:22 | 59.30974 | 8.86041 | 2382 ft | 179 kts | 94° |
| 2026-05-04 18:23 | 59.31006 | 8.88476 | 2354 ft | 178 kts | 84° |
| 2026-05-04 18:23 | 59.31183 | 8.90882 | 2428 ft | 178 kts | 78° |
| 2026-05-04 18:23 | 59.31461 | 8.93234 | 2426 ft | 178 kts | 75° |
| 2026-05-04 18:23 | 59.31761 | 8.95644 | 2366 ft | 184 kts | 76° |
| 2026-05-04 18:24 | 59.32045 | 8.98126 | 2141 ft | 194 kts | 78° |
| 2026-05-04 18:24 | 59.32051 | 9.00705 | 1996 ft | 189 kts | 102° |
| 2026-05-04 18:24 | 59.31365 | 9.02795 | 1716 ft | 180 kts | 142° |
| 2026-05-04 18:24 | 59.30354 | 9.04022 | 1508 ft | 166 kts | 150° |
| 2026-05-04 18:25 | 59.29664 | 9.05791 | 1170 ft | 172 kts | 112° |
| 2026-05-04 18:25 | 59.29810 | 9.08039 | 882 ft | 171 kts | 60° |
| 2026-05-04 18:25 | 59.30304 | 9.10010 | 795 ft | 156 kts | 69° |
| 2026-05-04 18:25 | 59.30525 | 9.11911 | 856 ft | 129 kts | 88° |
| 2026-05-04 18:26 | 59.30455 | 9.13609 | 814 ft | 120 kts | 84° |
| 2026-05-04 18:26 | 59.30647 | 9.15151 | 837 ft | 110 kts | 84° |
| 2026-05-04 18:26 | 59.30348 | 9.16385 | 843 ft | 108 kts | 146° |
| 2026-05-04 18:26 | 59.29678 | 9.16759 | 860 ft | 99 kts | 205° |
| 2026-05-04 18:27 | 59.29361 | 9.15646 | 650 ft | 102 kts | 275° |
| 2026-05-04 18:27 | 59.29563 | 9.14364 | 301 ft | 89 kts | 289° |
| 2026-05-04 18:27 | 59.29753 | 9.13429 | 202 ft | 64 kts | 284° |
| 2026-05-04 18:27 | 59.29887 | 9.12770 | 210 ft | 34 kts | 298° |
| 2026-05-04 18:28 | 59.29913 | 9.12631 | 208 ft | 7 kts | 143° |
| 2026-05-04 18:28 | 59.29859 | 9.12914 | 208 ft | 34 kts | 110° |
| 2026-05-04 18:28 | 59.29761 | 9.13386 | 200 ft | 36 kts | 111° |
| 2026-05-04 18:28 | 59.29679 | 9.13756 | 203 ft | 15 kts | 115° |
| 2026-05-04 18:29 | 59.29636 | 9.13810 | 202 ft | 10 kts | 309° |
| 2026-05-04 18:29 | 59.29646 | 9.13802 | 205 ft | 0 kts | 19° |
| 2026-05-04 18:33 | 59.29656 | 9.13841 | 202 ft | 9 kts | 83° |
| 2026-05-04 18:33 | 59.29685 | 9.13792 | 202 ft | 27 kts | 290° |
| 2026-05-04 18:33 | 59.29833 | 9.13044 | 254 ft | 77 kts | 286° |
| 2026-05-04 18:34 | 59.30111 | 9.12073 | 516 ft | 87 kts | 314° |
| 2026-05-04 18:34 | 59.30738 | 9.12070 | 713 ft | 111 kts | 35° |
| 2026-05-04 18:34 | 59.31355 | 9.13140 | 959 ft | 126 kts | 38° |
| 2026-05-04 18:34 | 59.31648 | 9.14686 | 1142 ft | 143 kts | 107° |
| 2026-05-04 18:35 | 59.31113 | 9.16455 | 1089 ft | 153 kts | 121° |
| 2026-05-04 18:35 | 59.30627 | 9.18375 | 1202 ft | 158 kts | 120° |
| 2026-05-04 18:35 | 59.30084 | 9.20227 | 1348 ft | 158 kts | 126° |
| 2026-05-04 18:35 | 59.29596 | 9.22140 | 1409 ft | 157 kts | 111° |
| 2026-05-04 18:36 | 59.29294 | 9.24304 | 1148 ft | 178 kts | 109° |
| 2026-05-04 18:36 | 59.29061 | 9.26743 | 893 ft | 185 kts | 98° |
| 2026-05-04 18:36 | 59.28930 | 9.29250 | 811 ft | 182 kts | 98° |
| 2026-05-04 18:36 | 59.28710 | 9.31723 | 461 ft | 189 kts | 104° |
| 2026-05-04 18:37 | 59.28342 | 9.34217 | 313 ft | 184 kts | 111° |
| 2026-05-04 18:37 | 59.27767 | 9.36413 | 187 ft | 180 kts | 132° |
| 2026-05-04 18:37 | 59.26918 | 9.38102 | 151 ft | 171 kts | 138° |
| 2026-05-04 18:37 | 59.26080 | 9.39732 | 139 ft | 168 kts | 140° |
| 2026-05-04 18:38 | 59.25289 | 9.41326 | 223 ft | 159 kts | 140° |
| 2026-05-04 18:38 | 59.24445 | 9.42769 | 214 ft | 163 kts | 146° |
| 2026-05-04 18:38 | 59.23552 | 9.44093 | 209 ft | 163 kts | 148° |
| 2026-05-04 18:38 | 59.22632 | 9.45405 | 207 ft | 163 kts | 150° |
| 2026-05-04 18:39 | 59.21685 | 9.46610 | 209 ft | 162 kts | 154° |
| 2026-05-04 18:39 | 59.20765 | 9.47903 | 167 ft | 164 kts | 141° |
| 2026-05-04 18:39 | 59.19880 | 9.49270 | 170 ft | 163 kts | 152° |
| 2026-05-04 18:39 | 59.18989 | 9.50564 | 324 ft | 152 kts | 135° |
| 2026-05-04 18:40 | 59.18869 | 9.52428 | 540 ft | 145 kts | 66° |
| 2026-05-04 18:40 | 59.19475 | 9.53999 | 871 ft | 142 kts | 59° |
| 2026-05-04 18:40 | 59.19435 | 9.55804 | 1169 ft | 141 kts | 121° |
| 2026-05-04 18:40 | 59.18762 | 9.57259 | 1269 ft | 151 kts | 147° |
| 2026-05-04 18:41 | 59.17995 | 9.58683 | 1369 ft | 153 kts | 143° |
| 2026-05-04 18:41 | 59.17214 | 9.60179 | 1384 ft | 160 kts | 144° |
| 2026-05-04 18:41 | 59.16313 | 9.61452 | 1435 ft | 160 kts | 159° |
| 2026-05-04 18:41 | 59.15314 | 9.62340 | 1505 ft | 156 kts | 168° |
| 2026-05-04 18:42 | 59.14271 | 9.63010 | 1462 ft | 160 kts | 171° |
| 2026-05-04 18:42 | 59.13218 | 9.63765 | 1464 ft | 161 kts | 165° |
| 2026-05-04 18:42 | 59.12203 | 9.64712 | 1525 ft | 163 kts | 166° |
| 2026-05-04 18:42 | 59.11079 | 9.65172 | 1393 ft | 166 kts | 182° |
| 2026-05-04 18:43 | 59.09978 | 9.65641 | 1445 ft | 161 kts | 175° |
| 2026-05-04 18:43 | 59.08883 | 9.66284 | 1345 ft | 162 kts | 172° |
| 2026-05-04 18:43 | 59.07857 | 9.67073 | 1507 ft | 157 kts | 166° |
| 2026-05-04 18:43 | 59.06847 | 9.68027 | 1373 ft | 168 kts | 155° |
| 2026-05-04 18:44 | 59.05967 | 9.69593 | 1315 ft | 169 kts | 142° |
| 2026-05-04 18:44 | 59.05450 | 9.70710 | 1397 ft | 169 kts | 135° |
| 2026-05-04 18:44 | 59.05066 | 9.73764 | 1258 ft | 180 kts | 91° |
| 2026-05-04 18:44 | 59.05044 | 9.76081 | 1624 ft | 167 kts | 93° |
| 2026-05-04 18:45 | 59.05029 | 9.78413 | 1570 ft | 179 kts | 92° |
| 2026-05-04 18:45 | 59.05018 | 9.80779 | 1732 ft | 173 kts | 92° |
| 2026-05-04 18:45 | 59.05020 | 9.83113 | 1855 ft | 174 kts | 90° |
| 2026-05-04 18:45 | 59.05113 | 9.85502 | 1896 ft | 180 kts | 83° |
| 2026-05-04 18:46 | 59.05276 | 9.87979 | 1792 ft | 190 kts | 83° |
| 2026-05-04 18:46 | 59.05451 | 9.90493 | 1894 ft | 181 kts | 82° |
| 2026-05-04 18:46 | 59.05614 | 9.92869 | 1767 ft | 177 kts | 83° |
| 2026-05-04 18:46 | 59.05764 | 9.95204 | 1710 ft | 170 kts | 84° |
| 2026-05-04 18:47 | 59.06007 | 9.97442 | 1511 ft | 170 kts | 73° |
| 2026-05-04 18:47 | 59.06292 | 9.99604 | 1377 ft | 161 kts | 68° |
| 2026-05-04 18:47 | 59.06742 | 10.01611 | 1079 ft | 160 kts | 63° |
| 2026-05-04 18:47 | 59.07239 | 10.03453 | 1001 ft | 151 kts | 55° |
| 2026-05-04 18:48 | 59.07746 | 10.05131 | 1008 ft | 139 kts | 58° |
| 2026-05-04 18:48 | 59.08215 | 10.06756 | 946 ft | 132 kts | 56° |
| 2026-05-04 18:48 | 59.08675 | 10.08298 | 943 ft | 137 kts | 57° |
| 2026-05-04 18:48 | 59.09151 | 10.09847 | 884 ft | 129 kts | 57° |
| 2026-05-04 18:49 | 59.09631 | 10.11307 | 860 ft | 131 kts | 52° |
| 2026-05-04 18:49 | 59.10161 | 10.12675 | 895 ft | 125 kts | 48° |
| 2026-05-04 18:49 | 59.10700 | 10.14001 | 879 ft | 124 kts | 47° |
| 2026-05-04 18:49 | 59.11251 | 10.15317 | 858 ft | 126 kts | 47° |
| 2026-05-04 18:50 | 59.11808 | 10.16584 | 843 ft | 125 kts | 46° |
| 2026-05-04 18:50 | 59.12368 | 10.17844 | 840 ft | 119 kts | 46° |
| 2026-05-04 18:50 | 59.12887 | 10.19078 | 750 ft | 117 kts | 45° |
| 2026-05-04 18:50 | 59.13377 | 10.20261 | 749 ft | 107 kts | 50° |
| 2026-05-04 18:51 | 59.13839 | 10.21360 | 716 ft | 106 kts | 44° |
| 2026-05-04 18:51 | 59.14284 | 10.22380 | 708 ft | 97 kts | 44° |
| 2026-05-04 18:51 | 59.14694 | 10.23350 | 753 ft | 88 kts | 46° |
| 2026-05-04 18:51 | 59.15067 | 10.24267 | 796 ft | 82 kts | 41° |
| 2026-05-04 18:52 | 59.15460 | 10.25105 | 773 ft | 84 kts | 39° |
| 2026-05-04 18:52 | 59.15938 | 10.25729 | 718 ft | 82 kts | 6° |
| 2026-05-04 18:52 | 59.16470 | 10.25950 | 626 ft | 77 kts | 349° |
| 2026-05-04 18:52 | 59.16985 | 10.25947 | 490 ft | 69 kts | 342° |
| 2026-05-04 18:53 | 59.17433 | 10.25907 | 344 ft | 58 kts | 345° |
| 2026-05-04 18:53 | 59.17823 | 10.25902 | 285 ft | 55 kts | 342° |
| 2026-05-04 18:53 | 59.18187 | 10.25904 | 272 ft | 48 kts | 345° |
| 2026-05-04 18:53 | 59.18421 | 10.25866 | 276 ft | 14 kts | 356° |
| 2026-05-04 18:54 | 59.18504 | 10.25800 | 276 ft | 6 kts | 267° |
| 2026-05-04 18:54 | 59.18495 | 10.25745 | 276 ft | 4 kts | 247° |
| 2026-05-04 18:54 | 59.18520 | 10.25676 | 276 ft | 12 kts | 358° |
| 2026-05-04 18:54 | 59.18568 | 10.25670 | 277 ft | 8 kts | 315° |
| 2026-05-04 18:55 | 59.18569 | 10.25631 | 277 ft | 0 kts | 269° |